sensor_id;sensor_type;location;lat;lon;timestamp;temperature;humidity
10678;DHT22;5387;48.722;9.110;2023-05-10T00:00:41;12.70;99.90
10678;DHT22;5387;48.722;9.110;2023-05-10T00:03:08;12.70;99.90
10678;DHT22;5387;48.722;9.110;2023-05-10T00:05:35;12.70;99.90
10678;DHT22;5387;48.722;9.110;2023-05-10T00:08:02;12.70;99.90
10678;DHT22;5387;48.722;9.110;2023-05-10T00:10:29;12.60;99.90
10678;DHT22;5387;48.722;9.110;2023-05-10T00:12:56;12.60;99.90
10678;DHT22;5387;48.722;9.110;2023-05-10T00:15:24;12.50;99.90
10678;DHT22;5387;48.722;9.110;2023-05-10T00:17:51;12.30;99.90
10678;DHT22;5387;48.722;9.110;2023-05-10T00:20:18;12.20;99.90
10678;DHT22;5387;48.722;9.110;2023-05-10T00:22:45;12.10;99.90
10678;DHT22;5387;48.722;9.110;2023-05-10T00:25:12;11.90;99.90
10678;DHT22;5387;48.722;9.110;2023-05-10T00:27:39;11.90;99.90
10678;DHT22;5387;48.722;9.110;2023-05-10T00:30:07;11.80;99.90
10678;DHT22;5387;48.722;9.110;2023-05-10T00:32:35;11.80;99.90
10678;DHT22;5387;48.722;9.110;2023-05-10T00:35:02;11.70;99.90
10678;DHT22;5387;48.722;9.110;2023-05-10T00:37:29;11.70;99.90
10678;DHT22;5387;48.722;9.110;2023-05-10T00:39:55;11.70;99.90
10678;DHT22;5387;48.722;9.110;2023-05-10T00:42:22;11.60;99.90
10678;DHT22;5387;48.722;9.110;2023-05-10T00:44:49;11.60;99.90
10678;DHT22;5387;48.722;9.110;2023-05-10T00:47:16;11.60;99.90
10678;DHT22;5387;48.722;9.110;2023-05-10T00:49:45;11.60;99.90
10678;DHT22;5387;48.722;9.110;2023-05-10T00:52:13;11.60;99.90
10678;DHT22;5387;48.722;9.110;2023-05-10T00:54:40;11.60;99.90
10678;DHT22;5387;48.722;9.110;2023-05-10T00:57:07;11.60;99.90
10678;DHT22;5387;48.722;9.110;2023-05-10T00:59:34;11.50;99.90
10678;DHT22;5387;48.722;9.110;2023-05-10T01:02:01;11.50;99.90
10678;DHT22;5387;48.722;9.110;2023-05-10T01:04:28;11.50;99.90
10678;DHT22;5387;48.722;9.110;2023-05-10T01:06:57;11.50;99.90
10678;DHT22;5387;48.722;9.110;2023-05-10T01:09:24;11.50;99.90
10678;DHT22;5387;48.722;9.110;2023-05-10T01:11:51;11.50;99.90
10678;DHT22;5387;48.722;9.110;2023-05-10T01:14:19;11.50;99.90
10678;DHT22;5387;48.722;9.110;2023-05-10T01:16:48;11.50;99.90
10678;DHT22;5387;48.722;9.110;2023-05-10T01:19:19;11.50;99.90
10678;DHT22;5387;48.722;9.110;2023-05-10T01:21:53;11.50;99.90
10678;DHT22;5387;48.722;9.110;2023-05-10T01:24:51;11.50;99.90
10678;DHT22;5387;48.722;9.110;2023-05-10T01:30:52;11.50;99.90
10678;DHT22;5387;48.722;9.110;2023-05-10T01:33:26;11.50;99.90
10678;DHT22;5387;48.722;9.110;2023-05-10T01:35:59;11.60;99.90
10678;DHT22;5387;48.722;9.110;2023-05-10T01:38:39;11.50;99.90
10678;DHT22;5387;48.722;9.110;2023-05-10T01:41:13;11.60;99.90
10678;DHT22;5387;48.722;9.110;2023-05-10T01:43:50;11.50;99.90
10678;DHT22;5387;48.722;9.110;2023-05-10T01:46:26;11.40;99.90
10678;DHT22;5387;48.722;9.110;2023-05-10T01:48:57;11.50;99.90
10678;DHT22;5387;48.722;9.110;2023-05-10T01:51:27;11.50;99.90
10678;DHT22;5387;48.722;9.110;2023-05-10T01:54:00;11.50;99.90
10678;DHT22;5387;48.722;9.110;2023-05-10T01:56:30;11.40;99.90
10678;DHT22;5387;48.722;9.110;2023-05-10T01:58:59;11.50;99.90
10678;DHT22;5387;48.722;9.110;2023-05-10T02:01:26;11.50;99.90
10678;DHT22;5387;48.722;9.110;2023-05-10T02:03:55;11.40;99.90
10678;DHT22;5387;48.722;9.110;2023-05-10T02:06:24;11.50;99.90
10678;DHT22;5387;48.722;9.110;2023-05-10T02:08:53;11.50;99.90
10678;DHT22;5387;48.722;9.110;2023-05-10T02:11:20;11.50;99.90
10678;DHT22;5387;48.722;9.110;2023-05-10T02:13:49;11.50;99.90
10678;DHT22;5387;48.722;9.110;2023-05-10T02:16:18;11.60;99.90
10678;DHT22;5387;48.722;9.110;2023-05-10T02:18:48;11.60;99.90
10678;DHT22;5387;48.722;9.110;2023-05-10T02:21:19;11.60;99.90
10678;DHT22;5387;48.722;9.110;2023-05-10T02:23:48;11.60;99.90
10678;DHT22;5387;48.722;9.110;2023-05-10T02:26:17;11.60;99.90
10678;DHT22;5387;48.722;9.110;2023-05-10T02:28:44;11.50;99.90
10678;DHT22;5387;48.722;9.110;2023-05-10T02:31:11;11.50;99.90
10678;DHT22;5387;48.722;9.110;2023-05-10T02:33:40;11.50;99.90
10678;DHT22;5387;48.722;9.110;2023-05-10T02:36:08;11.60;99.90
10678;DHT22;5387;48.722;9.110;2023-05-10T02:38:37;11.60;99.90
10678;DHT22;5387;48.722;9.110;2023-05-10T02:41:05;11.60;99.90
10678;DHT22;5387;48.722;9.110;2023-05-10T02:43:35;11.60;99.90
10678;DHT22;5387;48.722;9.110;2023-05-10T02:46:02;11.60;99.90
10678;DHT22;5387;48.722;9.110;2023-05-10T02:48:29;11.60;99.90
10678;DHT22;5387;48.722;9.110;2023-05-10T02:51:00;11.60;99.90
10678;DHT22;5387;48.722;9.110;2023-05-10T02:53:31;11.60;99.90
10678;DHT22;5387;48.722;9.110;2023-05-10T02:56:05;11.60;99.90
10678;DHT22;5387;48.722;9.110;2023-05-10T02:58:34;11.60;99.90
10678;DHT22;5387;48.722;9.110;2023-05-10T03:01:01;11.60;99.90
10678;DHT22;5387;48.722;9.110;2023-05-10T03:03:27;11.50;99.90
10678;DHT22;5387;48.722;9.110;2023-05-10T03:05:54;11.50;99.90
10678;DHT22;5387;48.722;9.110;2023-05-10T03:08:22;11.70;99.90
10678;DHT22;5387;48.722;9.110;2023-05-10T03:10:59;11.60;99.90
10678;DHT22;5387;48.722;9.110;2023-05-10T03:13:35;11.80;99.90
10678;DHT22;5387;48.722;9.110;2023-05-10T03:16:07;11.80;99.90
10678;DHT22;5387;48.722;9.110;2023-05-10T03:18:42;11.80;99.90
10678;DHT22;5387;48.722;9.110;2023-05-10T03:21:11;11.80;99.90
10678;DHT22;5387;48.722;9.110;2023-05-10T03:23:43;11.80;99.90
10678;DHT22;5387;48.722;9.110;2023-05-10T03:26:15;11.90;99.90
10678;DHT22;5387;48.722;9.110;2023-05-10T03:28:45;12.00;99.90
10678;DHT22;5387;48.722;9.110;2023-05-10T03:31:14;11.80;99.90
10678;DHT22;5387;48.722;9.110;2023-05-10T03:33:46;11.90;99.90
10678;DHT22;5387;48.722;9.110;2023-05-10T03:36:13;11.90;99.90
10678;DHT22;5387;48.722;9.110;2023-05-10T03:38:40;11.90;99.90
10678;DHT22;5387;48.722;9.110;2023-05-10T03:41:07;11.90;99.90
10678;DHT22;5387;48.722;9.110;2023-05-10T03:43:34;11.80;99.90
10678;DHT22;5387;48.722;9.110;2023-05-10T03:46:03;11.80;99.90
10678;DHT22;5387;48.722;9.110;2023-05-10T03:48:30;11.80;99.90
10678;DHT22;5387;48.722;9.110;2023-05-10T03:50:58;11.80;99.90
10678;DHT22;5387;48.722;9.110;2023-05-10T03:53:25;11.80;99.90
10678;DHT22;5387;48.722;9.110;2023-05-10T03:55:52;11.80;99.90
10678;DHT22;5387;48.722;9.110;2023-05-10T03:58:19;11.70;99.90
10678;DHT22;5387;48.722;9.110;2023-05-10T04:00:46;11.80;99.90
10678;DHT22;5387;48.722;9.110;2023-05-10T04:03:14;11.80;99.90
10678;DHT22;5387;48.722;9.110;2023-05-10T04:05:41;11.70;99.90
10678;DHT22;5387;48.722;9.110;2023-05-10T04:08:07;11.70;99.90
10678;DHT22;5387;48.722;9.110;2023-05-10T04:10:34;11.70;99.90
10678;DHT22;5387;48.722;9.110;2023-05-10T04:13:01;11.60;99.90
10678;DHT22;5387;48.722;9.110;2023-05-10T04:15:28;11.70;99.90
10678;DHT22;5387;48.722;9.110;2023-05-10T04:17:54;11.60;99.90
10678;DHT22;5387;48.722;9.110;2023-05-10T04:20:22;11.60;99.90
10678;DHT22;5387;48.722;9.110;2023-05-10T04:22:49;11.40;99.90
10678;DHT22;5387;48.722;9.110;2023-05-10T04:25:16;11.60;99.90
10678;DHT22;5387;48.722;9.110;2023-05-10T04:27:43;11.60;99.90
10678;DHT22;5387;48.722;9.110;2023-05-10T04:30:10;11.60;99.90
10678;DHT22;5387;48.722;9.110;2023-05-10T04:32:37;11.60;99.90
10678;DHT22;5387;48.722;9.110;2023-05-10T04:35:04;11.60;99.90
10678;DHT22;5387;48.722;9.110;2023-05-10T04:37:33;11.60;99.90
10678;DHT22;5387;48.722;9.110;2023-05-10T04:40:00;11.70;99.90
10678;DHT22;5387;48.722;9.110;2023-05-10T04:42:26;11.70;99.90
10678;DHT22;5387;48.722;9.110;2023-05-10T04:44:53;11.80;99.90
10678;DHT22;5387;48.722;9.110;2023-05-10T04:47:20;11.70;99.90
10678;DHT22;5387;48.722;9.110;2023-05-10T04:49:47;11.90;99.90
10678;DHT22;5387;48.722;9.110;2023-05-10T04:52:13;11.80;99.90
10678;DHT22;5387;48.722;9.110;2023-05-10T04:54:44;11.90;99.90
10678;DHT22;5387;48.722;9.110;2023-05-10T04:57:10;11.80;99.90
10678;DHT22;5387;48.722;9.110;2023-05-10T04:59:37;11.90;99.90
10678;DHT22;5387;48.722;9.110;2023-05-10T05:02:05;12.00;99.90
10678;DHT22;5387;48.722;9.110;2023-05-10T05:04:32;12.00;99.90
10678;DHT22;5387;48.722;9.110;2023-05-10T05:06:58;12.00;99.90
10678;DHT22;5387;48.722;9.110;2023-05-10T05:09:25;12.10;99.90
10678;DHT22;5387;48.722;9.110;2023-05-10T05:11:54;12.10;99.90
10678;DHT22;5387;48.722;9.110;2023-05-10T05:14:20;12.00;99.90
10678;DHT22;5387;48.722;9.110;2023-05-10T05:16:47;12.10;99.90
10678;DHT22;5387;48.722;9.110;2023-05-10T05:19:14;12.20;99.90
10678;DHT22;5387;48.722;9.110;2023-05-10T05:21:41;12.20;99.90
10678;DHT22;5387;48.722;9.110;2023-05-10T05:24:08;12.30;99.90
10678;DHT22;5387;48.722;9.110;2023-05-10T05:26:36;12.20;99.90
10678;DHT22;5387;48.722;9.110;2023-05-10T05:29:04;12.20;99.90
10678;DHT22;5387;48.722;9.110;2023-05-10T05:31:31;12.40;99.90
10678;DHT22;5387;48.722;9.110;2023-05-10T05:33:58;12.40;99.90
10678;DHT22;5387;48.722;9.110;2023-05-10T05:36:25;12.40;99.90
10678;DHT22;5387;48.722;9.110;2023-05-10T05:38:52;12.30;99.90
10678;DHT22;5387;48.722;9.110;2023-05-10T05:41:18;12.40;99.90
10678;DHT22;5387;48.722;9.110;2023-05-10T05:43:46;12.40;99.90
10678;DHT22;5387;48.722;9.110;2023-05-10T05:46:15;12.40;99.90
10678;DHT22;5387;48.722;9.110;2023-05-10T05:48:41;12.70;99.90
10678;DHT22;5387;48.722;9.110;2023-05-10T05:51:08;12.70;99.90
10678;DHT22;5387;48.722;9.110;2023-05-10T05:53:35;12.70;99.90
10678;DHT22;5387;48.722;9.110;2023-05-10T05:56:02;12.90;99.90
10678;DHT22;5387;48.722;9.110;2023-05-10T05:58:29;12.90;99.90
10678;DHT22;5387;48.722;9.110;2023-05-10T06:00:56;12.90;99.90
10678;DHT22;5387;48.722;9.110;2023-05-10T06:03:24;12.90;99.90
10678;DHT22;5387;48.722;9.110;2023-05-10T06:05:50;13.10;99.90
10678;DHT22;5387;48.722;9.110;2023-05-10T06:08:17;13.30;99.90
10678;DHT22;5387;48.722;9.110;2023-05-10T06:10:44;13.40;99.90
10678;DHT22;5387;48.722;9.110;2023-05-10T06:13:11;13.30;99.90
10678;DHT22;5387;48.722;9.110;2023-05-10T06:15:38;13.60;99.90
10678;DHT22;5387;48.722;9.110;2023-05-10T06:18:05;13.60;99.90
10678;DHT22;5387;48.722;9.110;2023-05-10T06:20:33;13.60;99.90
10678;DHT22;5387;48.722;9.110;2023-05-10T06:23:00;13.50;99.90
10678;DHT22;5387;48.722;9.110;2023-05-10T06:25:27;13.40;99.90
10678;DHT22;5387;48.722;9.110;2023-05-10T06:27:54;13.60;99.90
10678;DHT22;5387;48.722;9.110;2023-05-10T06:30:24;13.70;99.90
10678;DHT22;5387;48.722;9.110;2023-05-10T06:32:52;13.60;99.90
10678;DHT22;5387;48.722;9.110;2023-05-10T06:35:20;13.50;99.90
10678;DHT22;5387;48.722;9.110;2023-05-10T06:37:48;13.50;99.90
10678;DHT22;5387;48.722;9.110;2023-05-10T06:40:15;13.60;99.90
10678;DHT22;5387;48.722;9.110;2023-05-10T06:42:42;13.60;99.90
10678;DHT22;5387;48.722;9.110;2023-05-10T06:45:10;13.60;99.90
10678;DHT22;5387;48.722;9.110;2023-05-10T06:47:37;13.30;99.90
10678;DHT22;5387;48.722;9.110;2023-05-10T06:50:05;13.30;99.90
10678;DHT22;5387;48.722;9.110;2023-05-10T06:52:31;13.30;99.90
10678;DHT22;5387;48.722;9.110;2023-05-10T06:55:00;13.20;99.90
10678;DHT22;5387;48.722;9.110;2023-05-10T06:57:27;13.20;99.90
10678;DHT22;5387;48.722;9.110;2023-05-10T06:59:54;13.60;99.90
10678;DHT22;5387;48.722;9.110;2023-05-10T07:02:21;13.60;99.90
10678;DHT22;5387;48.722;9.110;2023-05-10T07:04:48;13.60;99.90
10678;DHT22;5387;48.722;9.110;2023-05-10T07:07:15;13.60;99.90
10678;DHT22;5387;48.722;9.110;2023-05-10T07:09:42;13.70;99.90
10678;DHT22;5387;48.722;9.110;2023-05-10T07:12:10;13.60;99.90
10678;DHT22;5387;48.722;9.110;2023-05-10T07:14:37;13.90;99.90
10678;DHT22;5387;48.722;9.110;2023-05-10T07:17:04;13.90;99.90
10678;DHT22;5387;48.722;9.110;2023-05-10T07:19:30;14.10;99.90
10678;DHT22;5387;48.722;9.110;2023-05-10T07:21:58;14.30;99.90
10678;DHT22;5387;48.722;9.110;2023-05-10T07:24:25;14.40;99.90
10678;DHT22;5387;48.722;9.110;2023-05-10T07:26:51;14.40;99.90
10678;DHT22;5387;48.722;9.110;2023-05-10T07:29:20;14.70;99.90
10678;DHT22;5387;48.722;9.110;2023-05-10T07:31:46;14.70;99.90
10678;DHT22;5387;48.722;9.110;2023-05-10T07:34:13;14.30;99.90
10678;DHT22;5387;48.722;9.110;2023-05-10T07:36:40;14.20;99.90
10678;DHT22;5387;48.722;9.110;2023-05-10T07:39:07;14.30;99.90
10678;DHT22;5387;48.722;9.110;2023-05-10T07:41:34;14.20;99.90
10678;DHT22;5387;48.722;9.110;2023-05-10T07:44:00;14.20;99.90
10678;DHT22;5387;48.722;9.110;2023-05-10T07:46:28;14.40;99.90
10678;DHT22;5387;48.722;9.110;2023-05-10T07:48:55;14.40;99.90
10678;DHT22;5387;48.722;9.110;2023-05-10T07:51:22;14.50;99.90
10678;DHT22;5387;48.722;9.110;2023-05-10T07:53:49;14.60;99.90
10678;DHT22;5387;48.722;9.110;2023-05-10T07:56:24;14.60;99.90
10678;DHT22;5387;48.722;9.110;2023-05-10T07:58:52;14.40;99.90
10678;DHT22;5387;48.722;9.110;2023-05-10T08:01:19;14.60;99.90
10678;DHT22;5387;48.722;9.110;2023-05-10T08:03:48;14.70;99.90
10678;DHT22;5387;48.722;9.110;2023-05-10T08:06:17;14.80;99.90
10678;DHT22;5387;48.722;9.110;2023-05-10T08:08:44;14.60;99.90
10678;DHT22;5387;48.722;9.110;2023-05-10T08:11:14;14.50;99.90
10678;DHT22;5387;48.722;9.110;2023-05-10T08:13:41;14.70;99.90
10678;DHT22;5387;48.722;9.110;2023-05-10T08:16:08;15.00;99.90
10678;DHT22;5387;48.722;9.110;2023-05-10T08:18:35;15.00;99.90
10678;DHT22;5387;48.722;9.110;2023-05-10T08:21:03;14.90;99.90
10678;DHT22;5387;48.722;9.110;2023-05-10T08:23:30;15.20;99.90
10678;DHT22;5387;48.722;9.110;2023-05-10T08:25:57;15.10;99.90
10678;DHT22;5387;48.722;9.110;2023-05-10T08:28:23;15.00;99.90
10678;DHT22;5387;48.722;9.110;2023-05-10T08:30:50;15.00;99.90
10678;DHT22;5387;48.722;9.110;2023-05-10T08:33:18;15.20;99.90
10678;DHT22;5387;48.722;9.110;2023-05-10T08:35:45;15.30;99.90
10678;DHT22;5387;48.722;9.110;2023-05-10T08:38:13;15.40;99.90
10678;DHT22;5387;48.722;9.110;2023-05-10T08:40:42;15.20;99.90
10678;DHT22;5387;48.722;9.110;2023-05-10T08:43:10;15.10;99.90
10678;DHT22;5387;48.722;9.110;2023-05-10T08:45:39;15.20;99.90
10678;DHT22;5387;48.722;9.110;2023-05-10T08:48:07;15.40;99.90
10678;DHT22;5387;48.722;9.110;2023-05-10T08:50:35;15.60;99.90
10678;DHT22;5387;48.722;9.110;2023-05-10T08:53:05;15.80;99.90
10678;DHT22;5387;48.722;9.110;2023-05-10T08:55:34;15.60;99.90
10678;DHT22;5387;48.722;9.110;2023-05-10T08:58:02;15.30;99.90
10678;DHT22;5387;48.722;9.110;2023-05-10T09:00:29;15.30;99.90
10678;DHT22;5387;48.722;9.110;2023-05-10T09:02:57;15.40;99.90
10678;DHT22;5387;48.722;9.110;2023-05-10T09:05:24;15.50;99.90
10678;DHT22;5387;48.722;9.110;2023-05-10T09:07:51;15.70;99.90
10678;DHT22;5387;48.722;9.110;2023-05-10T09:10:19;15.50;99.90
10678;DHT22;5387;48.722;9.110;2023-05-10T09:12:48;15.50;99.90
10678;DHT22;5387;48.722;9.110;2023-05-10T09:15:16;15.60;99.90
10678;DHT22;5387;48.722;9.110;2023-05-10T09:17:45;15.80;99.90
10678;DHT22;5387;48.722;9.110;2023-05-10T09:20:12;15.50;99.90
10678;DHT22;5387;48.722;9.110;2023-05-10T09:22:39;15.20;99.90
10678;DHT22;5387;48.722;9.110;2023-05-10T09:25:08;14.90;99.90
10678;DHT22;5387;48.722;9.110;2023-05-10T09:27:36;14.60;99.90
10678;DHT22;5387;48.722;9.110;2023-05-10T09:30:06;14.40;99.90
10678;DHT22;5387;48.722;9.110;2023-05-10T09:32:36;14.50;99.90
10678;DHT22;5387;48.722;9.110;2023-05-10T09:35:08;14.70;99.90
10678;DHT22;5387;48.722;9.110;2023-05-10T09:37:35;15.10;99.90
10678;DHT22;5387;48.722;9.110;2023-05-10T09:40:04;15.20;99.90
10678;DHT22;5387;48.722;9.110;2023-05-10T09:42:33;15.50;99.90
10678;DHT22;5387;48.722;9.110;2023-05-10T09:45:01;15.70;99.90
10678;DHT22;5387;48.722;9.110;2023-05-10T09:47:31;15.70;99.90
10678;DHT22;5387;48.722;9.110;2023-05-10T09:49:58;15.50;99.90
10678;DHT22;5387;48.722;9.110;2023-05-10T09:52:29;15.70;99.90
10678;DHT22;5387;48.722;9.110;2023-05-10T09:54:56;15.80;99.90
10678;DHT22;5387;48.722;9.110;2023-05-10T09:57:24;16.00;99.90
10678;DHT22;5387;48.722;9.110;2023-05-10T09:59:51;16.40;99.90
10678;DHT22;5387;48.722;9.110;2023-05-10T10:02:19;16.70;99.90
10678;DHT22;5387;48.722;9.110;2023-05-10T10:04:50;17.10;99.90
10678;DHT22;5387;48.722;9.110;2023-05-10T10:07:22;16.90;99.90
10678;DHT22;5387;48.722;9.110;2023-05-10T10:09:50;16.80;99.90
10678;DHT22;5387;48.722;9.110;2023-05-10T10:12:17;16.90;99.90
10678;DHT22;5387;48.722;9.110;2023-05-10T10:14:46;16.50;99.90
10678;DHT22;5387;48.722;9.110;2023-05-10T10:17:13;16.30;99.90
10678;DHT22;5387;48.722;9.110;2023-05-10T10:19:40;15.90;99.90
10678;DHT22;5387;48.722;9.110;2023-05-10T10:22:09;15.70;99.90
10678;DHT22;5387;48.722;9.110;2023-05-10T10:24:37;15.80;99.90
10678;DHT22;5387;48.722;9.110;2023-05-10T10:27:15;15.70;99.90
10678;DHT22;5387;48.722;9.110;2023-05-10T10:29:52;15.60;99.90
10678;DHT22;5387;48.722;9.110;2023-05-10T10:32:28;15.50;99.90
10678;DHT22;5387;48.722;9.110;2023-05-10T10:34:57;15.70;99.90
10678;DHT22;5387;48.722;9.110;2023-05-10T10:37:42;16.20;99.90
10678;DHT22;5387;48.722;9.110;2023-05-10T10:40:27;16.70;99.90
10678;DHT22;5387;48.722;9.110;2023-05-10T10:42:55;16.60;99.90
10678;DHT22;5387;48.722;9.110;2023-05-10T10:45:23;16.50;99.90
10678;DHT22;5387;48.722;9.110;2023-05-10T10:50:43;15.90;99.90
10678;DHT22;5387;48.722;9.110;2023-05-10T10:53:12;16.00;99.90
10678;DHT22;5387;48.722;9.110;2023-05-10T10:55:46;15.50;99.90
10678;DHT22;5387;48.722;9.110;2023-05-10T10:58:28;14.80;99.90
10678;DHT22;5387;48.722;9.110;2023-05-10T11:01:10;14.90;99.90
10678;DHT22;5387;48.722;9.110;2023-05-10T11:03:37;15.30;99.90
10678;DHT22;5387;48.722;9.110;2023-05-10T11:06:04;15.30;99.90
10678;DHT22;5387;48.722;9.110;2023-05-10T11:08:33;15.20;99.90
10678;DHT22;5387;48.722;9.110;2023-05-10T11:11:06;15.30;99.90
10678;DHT22;5387;48.722;9.110;2023-05-10T11:13:39;15.40;99.90
10678;DHT22;5387;48.722;9.110;2023-05-10T11:16:14;15.00;99.90
10678;DHT22;5387;48.722;9.110;2023-05-10T11:18:53;14.50;99.90
10678;DHT22;5387;48.722;9.110;2023-05-10T11:21:20;14.50;99.90
10678;DHT22;5387;48.722;9.110;2023-05-10T11:23:52;14.50;99.90
10678;DHT22;5387;48.722;9.110;2023-05-10T11:26:22;14.60;99.90
10678;DHT22;5387;48.722;9.110;2023-05-10T11:28:51;14.80;99.90
10678;DHT22;5387;48.722;9.110;2023-05-10T11:31:19;15.00;99.90
10678;DHT22;5387;48.722;9.110;2023-05-10T11:33:47;15.00;99.90
10678;DHT22;5387;48.722;9.110;2023-05-10T11:36:16;14.70;99.90
10678;DHT22;5387;48.722;9.110;2023-05-10T11:38:43;14.50;99.90
10678;DHT22;5387;48.722;9.110;2023-05-10T11:41:12;14.50;99.90
10678;DHT22;5387;48.722;9.110;2023-05-10T11:43:39;14.40;99.90
10678;DHT22;5387;48.722;9.110;2023-05-10T11:46:07;14.50;99.90
10678;DHT22;5387;48.722;9.110;2023-05-10T11:48:34;14.80;99.90
10678;DHT22;5387;48.722;9.110;2023-05-10T11:51:01;15.10;99.90
10678;DHT22;5387;48.722;9.110;2023-05-10T11:53:30;15.40;99.90
10678;DHT22;5387;48.722;9.110;2023-05-10T11:56:02;15.40;99.90
10678;DHT22;5387;48.722;9.110;2023-05-10T11:58:32;15.70;99.90
10678;DHT22;5387;48.722;9.110;2023-05-10T12:00:59;16.30;99.90
10678;DHT22;5387;48.722;9.110;2023-05-10T12:03:26;16.90;99.90
10678;DHT22;5387;48.722;9.110;2023-05-10T12:05:54;17.50;99.90
10678;DHT22;5387;48.722;9.110;2023-05-10T12:08:22;17.50;99.90
10678;DHT22;5387;48.722;9.110;2023-05-10T12:10:49;17.00;99.90
10678;DHT22;5387;48.722;9.110;2023-05-10T12:13:17;16.60;99.90
10678;DHT22;5387;48.722;9.110;2023-05-10T12:15:45;16.60;99.90
10678;DHT22;5387;48.722;9.110;2023-05-10T12:18:13;16.40;99.90
10678;DHT22;5387;48.722;9.110;2023-05-10T12:20:40;16.40;99.90
10678;DHT22;5387;48.722;9.110;2023-05-10T12:23:09;16.60;99.90
10678;DHT22;5387;48.722;9.110;2023-05-10T12:25:37;16.60;99.90
10678;DHT22;5387;48.722;9.110;2023-05-10T12:28:05;16.40;99.90
10678;DHT22;5387;48.722;9.110;2023-05-10T12:30:34;16.50;99.90
10678;DHT22;5387;48.722;9.110;2023-05-10T12:33:07;16.70;99.90
10678;DHT22;5387;48.722;9.110;2023-05-10T12:35:43;17.00;99.90
10678;DHT22;5387;48.722;9.110;2023-05-10T12:38:25;16.70;99.90
10678;DHT22;5387;48.722;9.110;2023-05-10T12:40:52;16.20;99.90
10678;DHT22;5387;48.722;9.110;2023-05-10T12:43:19;16.10;99.90
10678;DHT22;5387;48.722;9.110;2023-05-10T12:45:46;15.80;99.90
10678;DHT22;5387;48.722;9.110;2023-05-10T12:48:15;15.40;99.90
10678;DHT22;5387;48.722;9.110;2023-05-10T12:50:42;15.30;99.90
10678;DHT22;5387;48.722;9.110;2023-05-10T12:53:09;15.30;99.90
10678;DHT22;5387;48.722;9.110;2023-05-10T12:55:36;15.40;99.90
10678;DHT22;5387;48.722;9.110;2023-05-10T12:58:02;15.50;99.90
10678;DHT22;5387;48.722;9.110;2023-05-10T13:00:29;15.60;99.90
10678;DHT22;5387;48.722;9.110;2023-05-10T13:02:56;15.60;99.90
10678;DHT22;5387;48.722;9.110;2023-05-10T13:05:24;15.60;99.90
10678;DHT22;5387;48.722;9.110;2023-05-10T13:07:51;15.30;99.90
10678;DHT22;5387;48.722;9.110;2023-05-10T13:10:18;15.50;99.90
10678;DHT22;5387;48.722;9.110;2023-05-10T13:12:44;15.80;99.90
10678;DHT22;5387;48.722;9.110;2023-05-10T13:15:11;15.80;99.90
10678;DHT22;5387;48.722;9.110;2023-05-10T13:17:38;15.50;99.90
10678;DHT22;5387;48.722;9.110;2023-05-10T13:20:06;15.70;99.90
10678;DHT22;5387;48.722;9.110;2023-05-10T13:22:35;16.40;99.90
10678;DHT22;5387;48.722;9.110;2023-05-10T13:25:01;17.10;99.90
10678;DHT22;5387;48.722;9.110;2023-05-10T13:27:28;17.60;99.90
10678;DHT22;5387;48.722;9.110;2023-05-10T13:29:55;17.60;99.90
10678;DHT22;5387;48.722;9.110;2023-05-10T13:32:22;17.20;99.90
10678;DHT22;5387;48.722;9.110;2023-05-10T13:34:49;16.90;99.90
10678;DHT22;5387;48.722;9.110;2023-05-10T13:37:16;16.60;99.90
10678;DHT22;5387;48.722;9.110;2023-05-10T13:39:44;16.10;99.90
10678;DHT22;5387;48.722;9.110;2023-05-10T13:42:11;15.90;99.90
10678;DHT22;5387;48.722;9.110;2023-05-10T13:44:38;16.20;99.90
10678;DHT22;5387;48.722;9.110;2023-05-10T13:47:04;16.10;99.90
10678;DHT22;5387;48.722;9.110;2023-05-10T13:49:31;16.20;99.90
10678;DHT22;5387;48.722;9.110;2023-05-10T13:51:59;16.00;99.90
10678;DHT22;5387;48.722;9.110;2023-05-10T13:54:31;16.60;99.90
10678;DHT22;5387;48.722;9.110;2023-05-10T13:56:59;17.00;99.90
10678;DHT22;5387;48.722;9.110;2023-05-10T13:59:26;16.80;99.90
10678;DHT22;5387;48.722;9.110;2023-05-10T14:01:52;16.40;99.90
10678;DHT22;5387;48.722;9.110;2023-05-10T14:04:19;16.50;99.90
10678;DHT22;5387;48.722;9.110;2023-05-10T14:06:46;16.40;99.90
10678;DHT22;5387;48.722;9.110;2023-05-10T14:09:13;16.30;99.90
10678;DHT22;5387;48.722;9.110;2023-05-10T14:11:40;16.40;99.90
10678;DHT22;5387;48.722;9.110;2023-05-10T14:14:10;16.80;99.90
10678;DHT22;5387;48.722;9.110;2023-05-10T14:16:36;17.00;99.90
10678;DHT22;5387;48.722;9.110;2023-05-10T14:19:03;17.10;99.90
10678;DHT22;5387;48.722;9.110;2023-05-10T14:21:30;16.60;99.90
10678;DHT22;5387;48.722;9.110;2023-05-10T14:23:57;16.80;99.90
10678;DHT22;5387;48.722;9.110;2023-05-10T14:26:23;16.70;99.90
10678;DHT22;5387;48.722;9.110;2023-05-10T14:28:51;16.50;99.90
10678;DHT22;5387;48.722;9.110;2023-05-10T14:31:20;16.60;99.90
10678;DHT22;5387;48.722;9.110;2023-05-10T14:33:47;16.30;99.90
10678;DHT22;5387;48.722;9.110;2023-05-10T14:36:13;16.30;99.90
10678;DHT22;5387;48.722;9.110;2023-05-10T14:38:41;16.20;99.90
10678;DHT22;5387;48.722;9.110;2023-05-10T14:41:08;16.20;99.90
10678;DHT22;5387;48.722;9.110;2023-05-10T14:43:34;16.40;99.90
10678;DHT22;5387;48.722;9.110;2023-05-10T14:46:02;16.00;99.90
10678;DHT22;5387;48.722;9.110;2023-05-10T14:48:30;15.90;99.90
10678;DHT22;5387;48.722;9.110;2023-05-10T14:50:57;16.00;99.90
10678;DHT22;5387;48.722;9.110;2023-05-10T14:53:23;15.90;99.90
10678;DHT22;5387;48.722;9.110;2023-05-10T14:55:50;16.00;99.90
10678;DHT22;5387;48.722;9.110;2023-05-10T14:58:17;15.80;99.90
10678;DHT22;5387;48.722;9.110;2023-05-10T15:00:44;16.00;99.90
10678;DHT22;5387;48.722;9.110;2023-05-10T15:03:11;16.40;99.90
10678;DHT22;5387;48.722;9.110;2023-05-10T15:05:39;16.50;99.90
10678;DHT22;5387;48.722;9.110;2023-05-10T15:08:06;17.00;99.90
10678;DHT22;5387;48.722;9.110;2023-05-10T15:10:34;16.60;99.90
10678;DHT22;5387;48.722;9.110;2023-05-10T15:13:03;16.00;99.90
10678;DHT22;5387;48.722;9.110;2023-05-10T15:15:30;16.00;99.90
10678;DHT22;5387;48.722;9.110;2023-05-10T15:17:57;15.90;99.90
10678;DHT22;5387;48.722;9.110;2023-05-10T15:20:24;15.70;99.90
10678;DHT22;5387;48.722;9.110;2023-05-10T15:22:52;15.80;99.90
10678;DHT22;5387;48.722;9.110;2023-05-10T15:25:19;15.70;99.90
10678;DHT22;5387;48.722;9.110;2023-05-10T15:27:45;15.70;99.90
10678;DHT22;5387;48.722;9.110;2023-05-10T15:30:13;15.90;99.90
10678;DHT22;5387;48.722;9.110;2023-05-10T15:32:39;15.90;99.90
10678;DHT22;5387;48.722;9.110;2023-05-10T15:35:08;15.90;99.90
10678;DHT22;5387;48.722;9.110;2023-05-10T15:37:35;15.90;99.90
10678;DHT22;5387;48.722;9.110;2023-05-10T15:40:03;16.30;99.90
10678;DHT22;5387;48.722;9.110;2023-05-10T15:42:31;16.40;99.90
10678;DHT22;5387;48.722;9.110;2023-05-10T15:44:57;16.50;99.90
10678;DHT22;5387;48.722;9.110;2023-05-10T15:47:25;16.50;99.90
10678;DHT22;5387;48.722;9.110;2023-05-10T15:49:53;16.50;99.90
10678;DHT22;5387;48.722;9.110;2023-05-10T15:52:20;16.60;99.90
10678;DHT22;5387;48.722;9.110;2023-05-10T15:54:48;17.10;99.90
10678;DHT22;5387;48.722;9.110;2023-05-10T15:57:16;17.30;99.90